createdAt,value
2016-10-30T00:00:29.386Z,75.65
2016-10-30T00:01:29.407Z,76.04
2016-10-30T00:02:29.494Z,76.81
2016-10-30T00:03:29.564Z,77.44
2016-10-30T00:04:29.618Z,77.44
2016-10-30T00:05:29.663Z,77.06
2016-10-30T00:06:29.693Z,77.25
2016-10-30T00:07:29.721Z,77.34
2016-10-30T00:08:29.793Z,76.96
2016-10-30T00:09:29.922Z,77.15
2016-10-30T00:10:29.901Z,77.44
2016-10-30T00:11:29.946Z,76.77
2016-10-30T00:12:29.981Z,76.77
2016-10-30T00:13:30.009Z,76.71
2016-10-30T00:14:30.165Z,76.62
2016-10-30T00:15:30.127Z,76.39
2016-10-30T00:16:30.180Z,75.81
2016-10-30T00:17:30.213Z,76.23
2016-10-30T00:18:30.262Z,76.14
2016-10-30T00:19:30.302Z,76.52
2016-10-30T00:20:30.389Z,76.77
2016-10-30T00:21:30.457Z,76.57
2016-10-30T00:22:30.497Z,77.34
2016-10-30T00:23:30.527Z,77.53
2016-10-30T00:24:30.596Z,77.53
2016-10-30T00:25:30.644Z,77.82
2016-10-30T00:26:30.668Z,78.49
2016-10-30T00:27:30.733Z,78.02
2016-10-30T00:28:31.286Z,78.2
2016-10-30T00:29:30.844Z,78.2
2016-10-30T00:30:30.850Z,78.36
2016-10-30T00:31:31.425Z,77.92
2016-10-30T00:32:30.963Z,78.3
2016-10-30T00:33:31.025Z,77.92
2016-10-30T00:34:31.074Z,77.25
2016-10-30T00:35:31.086Z,77.44
2016-10-30T00:36:31.151Z,77.06
2016-10-30T00:37:31.183Z,77.38
2016-10-30T00:38:31.277Z,77.34
2016-10-30T00:39:31.320Z,77.44
2016-10-30T00:40:31.453Z,77.15
2016-10-30T00:41:31.410Z,76.96
2016-10-30T00:42:31.460Z,76.86
2016-10-30T00:43:31.519Z,76.86
2016-10-30T00:44:31.572Z,77.34
2016-10-30T00:45:31.703Z,77.06
2016-10-30T00:46:31.663Z,77.44
2016-10-30T00:47:31.682Z,77.06
2016-10-30T00:48:32.272Z,77.44
2016-10-30T00:49:31.811Z,77.06
2016-10-30T00:50:31.943Z,77.34
2016-10-30T00:51:31.882Z,77.53
2016-10-30T00:52:31.941Z,77.25
2016-10-30T00:53:31.987Z,77.44
2016-10-30T00:54:32.066Z,77.06
2016-10-30T00:55:32.109Z,76.96
2016-10-30T00:56:32.156Z,77.29
2016-10-30T00:57:32.186Z,77.29
2016-10-30T00:58:32.231Z,76.81
2016-10-30T00:59:32.333Z,75.95
2016-10-30T01:00:32.393Z,76.29
2016-10-30T01:01:32.419Z,76.48
2016-10-30T01:02:32.443Z,77.25
2016-10-30T01:03:32.497Z,77.44
2016-10-30T01:04:32.548Z,78.4
2016-10-30T01:05:32.591Z,79.26
2016-10-30T01:06:32.653Z,79.93
2016-10-30T01:07:32.686Z,79.99
2016-10-30T01:08:32.752Z,80.56
2016-10-30T01:09:32.784Z,80.08
2016-10-30T01:10:32.861Z,80.37
2016-10-30T01:11:32.996Z,80.08
2016-10-30T01:12:32.939Z,80.03
2016-10-30T01:13:32.982Z,80.41
2016-10-30T01:14:33.050Z,80.56
2016-10-30T01:15:33.070Z,80.41
2016-10-30T01:16:33.241Z,80.18
2016-10-30T01:17:33.191Z,80.12
2016-10-30T01:18:33.235Z,80.22
2016-10-30T01:19:33.291Z,81.08
2016-10-30T01:20:33.352Z,80.89
2016-10-30T01:21:33.381Z,80.94
2016-10-30T01:22:33.445Z,81.18
2016-10-30T01:23:33.508Z,80.51
2016-10-30T01:24:33.509Z,80.89
2016-10-30T01:25:33.589Z,81.18
2016-10-30T01:26:33.640Z,81.08
2016-10-30T01:27:34.208Z,80.79
2016-10-30T01:28:33.715Z,81.95
2016-10-30T01:29:33.806Z,81.37
2016-10-30T01:30:33.830Z,81.66
2016-10-30T01:31:33.890Z,81.43
2016-10-30T01:32:33.936Z,81.56
2016-10-30T01:33:33.986Z,81.27
2016-10-30T01:34:34.002Z,81.27
2016-10-30T01:35:34.045Z,81.46
2016-10-30T01:36:34.110Z,81.56
2016-10-30T01:37:34.171Z,81.46
2016-10-30T01:38:34.210Z,82.19
2016-10-30T01:39:34.314Z,81.37
2016-10-30T01:40:34.347Z,82.04
2016-10-30T01:41:34.368Z,81.95
2016-10-30T01:42:34.514Z,82.19
2016-10-30T01:43:34.475Z,82.04
2016-10-30T01:44:34.508Z,81.95
2016-10-30T01:45:34.566Z,81.85
2016-10-30T01:46:34.628Z,81.85
2016-10-30T01:47:34.780Z,81.66
2016-10-30T01:48:34.702Z,81.85
2016-10-30T01:49:34.774Z,81.66
2016-10-30T01:50:34.817Z,82.04
2016-10-30T01:51:34.871Z,81.56
2016-10-30T01:52:35.008Z,81.27
2016-10-30T01:53:34.960Z,81.85
2016-10-30T01:54:35.012Z,81.56
2016-10-30T01:55:35.080Z,81.56
2016-10-30T01:56:35.106Z,81.52
2016-10-30T01:57:35.253Z,81.33
2016-10-30T01:58:35.198Z,81.62
2016-10-30T01:59:35.767Z,81.52
2016-10-30T02:00:35.319Z,81.62
2016-10-30T02:01:35.344Z,81.52
2016-10-30T02:02:35.405Z,81.27
2016-10-30T02:03:35.435Z,81.27
2016-10-30T02:04:35.515Z,81.66
2016-10-30T02:05:35.567Z,81.27
2016-10-30T02:06:35.625Z,81.43
2016-10-30T02:07:35.651Z,81.81
2016-10-30T02:08:35.718Z,81.56
2016-10-30T02:09:35.729Z,81.23
2016-10-30T02:10:35.803Z,81.85
2016-10-30T02:11:35.840Z,81.56
2016-10-30T02:12:35.898Z,81.37
2016-10-30T02:13:35.937Z,81.81
2016-10-30T02:14:36.007Z,81.9
2016-10-30T02:15:36.028Z,82.38
2016-10-30T02:16:36.105Z,82.29
2016-10-30T02:17:36.131Z,82.76
2016-10-30T02:18:36.217Z,82.86
2016-10-30T02:19:36.249Z,83.15
2016-10-30T02:20:36.278Z,82.38
2016-10-30T02:21:36.321Z,82.29
2016-10-30T02:22:36.374Z,82.19
2016-10-30T02:23:36.422Z,82.42
2016-10-30T02:24:36.515Z,82.62
2016-10-30T02:25:36.550Z,82.38
2016-10-30T02:26:36.590Z,82.57
2016-10-30T02:27:36.631Z,82.48
2016-10-30T02:28:36.796Z,82.86
2016-10-30T02:29:36.730Z,82.57
2016-10-30T02:30:36.826Z,83.05
2016-10-30T02:31:36.828Z,82.86
2016-10-30T02:32:36.891Z,83.25
2016-10-30T02:33:37.031Z,83.25
2016-10-30T02:34:37.509Z,83.05
2016-10-30T02:35:37.027Z,83.44
2016-10-30T02:36:37.107Z,83.44
2016-10-30T02:37:37.099Z,82.96
2016-10-30T02:38:37.288Z,83.15
2016-10-30T02:39:37.233Z,83.25
2016-10-30T02:40:37.278Z,83.34
2016-10-30T02:41:37.366Z,83.53
2016-10-30T02:42:37.374Z,83.05
2016-10-30T02:43:37.412Z,83.05
2016-10-30T02:44:37.479Z,83.72
2016-10-30T02:45:37.528Z,83.82
2016-10-30T02:46:37.588Z,83.25
2016-10-30T02:47:37.635Z,83.72
2016-10-30T02:48:37.652Z,83.25
2016-10-30T02:49:37.712Z,83.63
2016-10-30T02:50:37.757Z,83.05
2016-10-30T02:51:37.849Z,83.72
2016-10-30T02:52:37.855Z,83.15
2016-10-30T02:53:37.910Z,83.05
2016-10-30T02:54:37.962Z,82.86
2016-10-30T02:55:38.029Z,83.44
2016-10-30T02:56:38.098Z,83.05
2016-10-30T02:57:38.128Z,83.34
2016-10-30T02:58:38.143Z,82.57
2016-10-30T02:59:38.310Z,83.15
2016-10-30T03:00:38.285Z,82.86
2016-10-30T03:01:38.295Z,82.09
2016-10-30T03:02:38.358Z,82.09
2016-10-30T03:03:38.390Z,81.9
2016-10-30T03:04:38.542Z,81.43
2016-10-30T03:05:38.499Z,81.56
2016-10-30T03:06:38.565Z,81.62
2016-10-30T03:07:38.601Z,82.19
2016-10-30T03:08:38.670Z,81.81
2016-10-30T03:09:38.715Z,81.71
2016-10-30T03:10:39.283Z,82
2016-10-30T03:11:38.775Z,81.62
2016-10-30T03:12:38.862Z,81.43
2016-10-30T03:13:38.906Z,82.19
2016-10-30T03:14:38.953Z,82.29
2016-10-30T03:15:39.002Z,82.29
2016-10-30T03:16:39.032Z,82.86
2016-10-30T03:17:39.083Z,82.29
2016-10-30T03:18:39.136Z,82.57
2016-10-30T03:19:39.215Z,82.48
2016-10-30T03:20:39.242Z,82.19
2016-10-30T03:21:39.295Z,82.29
2016-10-30T03:22:39.870Z,82.42
2016-10-30T03:23:39.367Z,81.81
2016-10-30T03:24:39.457Z,81.85
2016-10-30T03:25:39.517Z,82.38
2016-10-30T03:26:39.534Z,81.71
2016-10-30T03:27:39.570Z,82
2016-10-30T03:28:39.637Z,81.71
2016-10-30T03:29:39.673Z,82.19
2016-10-30T03:30:39.732Z,81.95
2016-10-30T03:31:39.814Z,81.43
2016-10-30T03:32:39.835Z,81.56
2016-10-30T03:33:39.920Z,82.29
2016-10-30T03:34:39.948Z,81.9
2016-10-30T03:35:40.007Z,81.43
2016-10-30T03:36:40.063Z,81.95
2016-10-30T03:37:40.075Z,81.85
2016-10-30T03:38:40.133Z,81.75
2016-10-30T03:39:40.180Z,81.27
2016-10-30T03:40:40.338Z,81.27
2016-10-30T03:41:40.280Z,81.18
2016-10-30T03:42:40.328Z,81.23
2016-10-30T03:43:40.350Z,81.52
2016-10-30T03:44:40.438Z,81.75
2016-10-30T03:45:40.579Z,82.19
2016-10-30T03:46:40.523Z,82.86
2016-10-30T03:47:40.576Z,82.19
2016-10-30T03:48:41.132Z,82.48
2016-10-30T03:49:41.197Z,82.29
2016-10-30T03:50:40.715Z,82.09
2016-10-30T03:51:40.776Z,81.81
2016-10-30T03:52:40.819Z,81.81
2016-10-30T03:53:40.896Z,81.56
2016-10-30T03:54:40.920Z,81.66
2016-10-30T03:55:40.973Z,81.66
2016-10-30T03:56:41.025Z,81.46
2016-10-30T03:57:41.069Z,81.66
2016-10-30T03:58:41.116Z,81.08
2016-10-30T03:59:41.161Z,80.79
2016-10-30T04:00:41.230Z,81.18
2016-10-30T04:01:41.256Z,81.75
2016-10-30T04:02:41.339Z,81.52
2016-10-30T04:03:41.360Z,81.37
2016-10-30T04:04:41.389Z,81.27
2016-10-30T04:05:41.459Z,81.46
2016-10-30T04:06:41.516Z,80.99
2016-10-30T04:07:41.544Z,81.66
2016-10-30T04:08:41.620Z,81.37
2016-10-30T04:09:41.651Z,81.27
2016-10-30T04:10:41.738Z,81.37
2016-10-30T04:11:41.846Z,81.75
2016-10-30T04:12:41.819Z,81.62
2016-10-30T04:13:41.882Z,81.52
2016-10-30T04:14:41.880Z,81.75
2016-10-30T04:15:41.966Z,81.46
2016-10-30T04:16:42.108Z,81.43
2016-10-30T04:17:42.054Z,81.66
2016-10-30T04:18:42.126Z,81.46
2016-10-30T04:19:42.169Z,81.95
2016-10-30T04:20:42.213Z,81.62
2016-10-30T04:21:42.354Z,82.14
2016-10-30T04:22:42.285Z,81.37
2016-10-30T04:23:42.373Z,81.81
2016-10-30T04:24:42.420Z,82.09
2016-10-30T04:25:42.455Z,82.09
2016-10-30T04:26:42.602Z,81.81
2016-10-30T04:27:42.532Z,81.33
2016-10-30T04:28:42.585Z,81.66
2016-10-30T04:29:42.662Z,81.43
2016-10-30T04:30:42.693Z,82.32
2016-10-30T04:31:42.739Z,82.29
2016-10-30T04:32:42.772Z,82.29
2016-10-30T04:33:43.361Z,82.29
2016-10-30T04:34:42.881Z,81.81
2016-10-30T04:35:42.925Z,81.81
2016-10-30T04:36:42.999Z,81.95
2016-10-30T04:37:43.060Z,82.32
2016-10-30T04:38:43.116Z,82.96
2016-10-30T04:39:43.143Z,83.25
2016-10-30T04:40:43.195Z,83.25
2016-10-30T04:41:43.250Z,82.67
2016-10-30T04:42:43.293Z,83.15
2016-10-30T04:43:43.367Z,83.25
2016-10-30T04:44:43.368Z,83.53
2016-10-30T04:45:43.458Z,83.92
2016-10-30T04:46:43.501Z,84.01
2016-10-30T04:47:43.546Z,84.01
2016-10-30T04:48:43.581Z,83.44
2016-10-30T04:49:43.648Z,83.92
2016-10-30T04:50:43.679Z,83.92
2016-10-30T04:51:43.735Z,83.34
2016-10-30T04:52:43.895Z,82.86
2016-10-30T04:53:43.827Z,83.15
2016-10-30T04:54:43.852Z,83.34
2016-10-30T04:55:43.969Z,83.63
2016-10-30T04:56:43.978Z,84.11
2016-10-30T04:57:44.115Z,84.39
2016-10-30T04:58:44.082Z,84.88
2016-10-30T04:59:44.131Z,84.88
2016-10-30T05:00:44.165Z,84.2
2016-10-30T05:01:44.226Z,84.39
2016-10-30T05:02:44.371Z,84.3
2016-10-30T05:03:44.312Z,84.39
2016-10-30T05:04:44.403Z,84.39
2016-10-30T05:05:44.407Z,84.11
2016-10-30T05:06:44.479Z,84.01
2016-10-30T05:07:44.549Z,84.39
2016-10-30T05:08:44.582Z,84.11
2016-10-30T05:09:44.668Z,83.72
2016-10-30T05:10:44.660Z,83.92
2016-10-30T05:11:44.721Z,83.38
2016-10-30T05:12:44.757Z,83.38
2016-10-30T05:13:44.801Z,83.38
2016-10-30T05:14:44.858Z,83.76
2016-10-30T05:15:44.929Z,83.38
2016-10-30T05:16:44.993Z,83.19
2016-10-30T05:17:45.005Z,83.19
2016-10-30T05:18:45.081Z,84.15
2016-10-30T05:19:45.098Z,84.01
2016-10-30T05:20:45.173Z,84.11
2016-10-30T05:21:45.749Z,84.2
2016-10-30T05:22:45.254Z,83.92
2016-10-30T05:23:45.422Z,83.95
2016-10-30T05:24:45.345Z,83.92
2016-10-30T05:25:45.414Z,84.05
2016-10-30T05:26:45.452Z,83.76
2016-10-30T05:27:45.526Z,83.95
2016-10-30T05:28:45.644Z,83.58
2016-10-30T05:29:45.618Z,84.05
2016-10-30T05:30:45.689Z,83.95
2016-10-30T05:31:45.709Z,83
2016-10-30T05:32:45.748Z,83.48
2016-10-30T05:33:45.907Z,84.01
2016-10-30T05:34:45.882Z,84.11
2016-10-30T05:35:45.951Z,83.53
2016-10-30T05:36:45.956Z,83.58
2016-10-30T05:37:45.992Z,82.9
2016-10-30T05:38:46.070Z,83.38
2016-10-30T05:39:46.090Z,83.38
2016-10-30T05:40:46.165Z,83.15
2016-10-30T05:41:46.733Z,83.25
2016-10-30T05:42:46.279Z,83.82
2016-10-30T05:43:46.308Z,83.92
2016-10-30T05:44:46.353Z,84.39
2016-10-30T05:45:46.414Z,84.3
2016-10-30T05:46:46.448Z,83.92
2016-10-30T05:47:46.494Z,83.63
2016-10-30T05:48:46.540Z,84.3
2016-10-30T05:49:46.594Z,84.2
2016-10-30T05:50:46.622Z,84.2
2016-10-30T05:51:46.672Z,83.92
2016-10-30T05:52:46.736Z,83
2016-10-30T05:53:46.821Z,83.05
2016-10-30T05:54:46.887Z,83.25
2016-10-30T05:55:46.875Z,83.63
2016-10-30T05:56:46.992Z,82.9
2016-10-30T05:57:46.999Z,83.09
2016-10-30T05:58:47.047Z,83.38
2016-10-30T05:59:47.115Z,83.25
2016-10-30T06:00:47.150Z,83.48
2016-10-30T06:01:47.200Z,83.48
2016-10-30T06:02:47.230Z,83.09
2016-10-30T06:03:47.263Z,83.09
2016-10-30T06:04:47.405Z,82.81
2016-10-30T06:05:47.400Z,83.38
2016-10-30T06:06:47.418Z,83.19
2016-10-30T06:07:47.479Z,83.29
2016-10-30T06:08:47.550Z,83.29
2016-10-30T06:09:47.731Z,82.71
2016-10-30T06:10:47.603Z,82.71
2016-10-30T06:11:47.691Z,82.32
2016-10-30T06:12:47.714Z,82.42
2016-10-30T06:13:47.792Z,82.32
2016-10-30T06:14:47.809Z,82.32
2016-10-30T06:15:47.853Z,82.14
2016-10-30T06:16:47.914Z,81.27
2016-10-30T06:17:47.969Z,81.85
2016-10-30T06:18:48.038Z,81.95
2016-10-30T06:19:48.073Z,82.42
2016-10-30T06:20:48.135Z,82.9
2016-10-30T06:21:48.175Z,82.42
2016-10-30T06:22:48.219Z,82.32
2016-10-30T06:23:48.282Z,82.42
2016-10-30T06:24:48.291Z,82.23
2016-10-30T06:25:48.362Z,81.95
2016-10-30T06:26:48.416Z,82.14
2016-10-30T06:27:48.488Z,82.32
2016-10-30T06:28:48.531Z,81.95
2016-10-30T06:29:48.554Z,81.85
2016-10-30T06:30:48.637Z,81.46
2016-10-30T06:31:48.652Z,81.46
2016-10-30T06:32:48.757Z,81.37
2016-10-30T06:33:48.793Z,81.37
2016-10-30T06:34:48.828Z,81.37
2016-10-30T06:35:48.951Z,81.46
2016-10-30T06:36:48.900Z,81.46
2016-10-30T06:37:48.964Z,81.37
2016-10-30T06:38:49.541Z,81.56
2016-10-30T06:39:49.069Z,81.56
2016-10-30T06:40:49.246Z,81.46
2016-10-30T06:41:49.175Z,81.85
2016-10-30T06:42:49.199Z,82.14
2016-10-30T06:43:49.292Z,81.95
2016-10-30T06:44:49.345Z,81.75
2016-10-30T06:45:49.348Z,81.27
2016-10-30T06:46:49.404Z,81.37
2016-10-30T06:47:49.469Z,81.46
2016-10-30T06:48:49.506Z,81.27
2016-10-30T06:49:49.536Z,81.27
2016-10-30T06:50:49.608Z,81.75
2016-10-30T06:51:49.733Z,81.56
2016-10-30T06:52:49.698Z,82.14
2016-10-30T06:53:49.764Z,82.14
2016-10-30T06:54:49.803Z,81.75
2016-10-30T06:55:49.856Z,81.46
2016-10-30T06:56:49.904Z,82.42
2016-10-30T06:57:49.944Z,82.38
2016-10-30T06:58:50.023Z,82.29
2016-10-30T06:59:50.063Z,82.19
2016-10-30T07:00:50.124Z,82.57
2016-10-30T07:01:50.138Z,82.23
2016-10-30T07:02:50.222Z,81.85
2016-10-30T07:03:50.287Z,82.04
2016-10-30T07:04:50.317Z,82.23
2016-10-30T07:05:50.363Z,81.81
2016-10-30T07:06:50.521Z,82.14
2016-10-30T07:07:50.465Z,82.23
2016-10-30T07:08:50.490Z,81.46
2016-10-30T07:09:50.555Z,81.56
2016-10-30T07:10:50.602Z,81.56
2016-10-30T07:11:50.739Z,81.81
2016-10-30T07:12:50.722Z,82.19
2016-10-30T07:13:50.750Z,82.38
2016-10-30T07:14:50.802Z,82.29
2016-10-30T07:15:50.832Z,82.19
2016-10-30T07:16:50.918Z,81.9
2016-10-30T07:17:50.981Z,81.46
2016-10-30T07:18:50.997Z,81.62
2016-10-30T07:19:51.063Z,81.43
2016-10-30T07:20:51.120Z,82.14
2016-10-30T07:21:51.140Z,81.9
2016-10-30T07:22:51.188Z,81.43
2016-10-30T07:23:51.245Z,81.52
2016-10-30T07:24:51.316Z,81.9
2016-10-30T07:25:51.328Z,81.81
2016-10-30T07:26:51.427Z,81.43
2016-10-30T07:27:51.429Z,81.43
2016-10-30T07:28:51.506Z,81.52
2016-10-30T07:29:51.540Z,81.52
2016-10-30T07:30:51.578Z,81.33
2016-10-30T07:31:51.635Z,81.62
2016-10-30T07:32:51.675Z,81.62
2016-10-30T07:33:51.720Z,81.43
2016-10-30T07:34:51.782Z,81.23
2016-10-30T07:35:51.837Z,81.18
2016-10-30T07:36:52.402Z,81.27
2016-10-30T07:37:51.940Z,80.94
2016-10-30T07:38:51.969Z,81.23
2016-10-30T07:39:52.030Z,81.33
2016-10-30T07:40:52.058Z,81.66
2016-10-30T07:41:52.132Z,81.56
2016-10-30T07:42:52.284Z,80.99
2016-10-30T07:43:52.236Z,80.89
2016-10-30T07:44:52.280Z,80.7
2016-10-30T07:45:52.328Z,80.99
2016-10-30T07:46:52.374Z,81.08
2016-10-30T07:47:52.535Z,80.99
2016-10-30T07:48:52.479Z,80.89
2016-10-30T07:49:52.525Z,80.22
2016-10-30T07:50:52.568Z,80.12
2016-10-30T07:51:52.624Z,80.22
2016-10-30T07:52:52.788Z,80.18
2016-10-30T07:53:52.739Z,80.03
2016-10-30T07:54:52.755Z,79.16
2016-10-30T07:55:52.822Z,79.74
2016-10-30T07:56:52.860Z,79.99
2016-10-30T07:57:52.904Z,79.03
2016-10-30T07:58:53.024Z,79.13
2016-10-30T07:59:52.991Z,79.41
2016-10-30T08:00:53.069Z,79.32
2016-10-30T08:01:53.105Z,79.13
2016-10-30T08:02:53.158Z,79.74
2016-10-30T08:03:53.218Z,78.84
2016-10-30T08:04:53.285Z,78.93
2016-10-30T08:05:53.315Z,79.13
2016-10-30T08:06:53.363Z,79.26
2016-10-30T08:07:53.448Z,79.6
2016-10-30T08:08:53.482Z,79.32
2016-10-30T08:09:53.529Z,79.41
2016-10-30T08:10:53.568Z,79.6
2016-10-30T08:11:53.633Z,78.84
2016-10-30T08:12:53.669Z,78.88
2016-10-30T08:13:53.741Z,78.49
2016-10-30T08:14:53.745Z,78.2
2016-10-30T08:15:53.827Z,77.88
2016-10-30T08:16:53.893Z,78.2
2016-10-30T08:17:53.912Z,78.2
2016-10-30T08:18:53.958Z,78.02
2016-10-30T08:19:54.005Z,78.2
2016-10-30T08:20:54.042Z,78.11
2016-10-30T08:21:54.110Z,78.02
2016-10-30T08:22:54.154Z,78.3
2016-10-30T08:23:54.826Z,77.92
2016-10-30T08:24:54.251Z,77.92
2016-10-30T08:25:54.312Z,78.59
2016-10-30T08:26:54.329Z,78.2
2016-10-30T08:27:54.422Z,78.49
2016-10-30T08:28:54.566Z,78.69
2016-10-30T08:29:54.507Z,78.27
2016-10-30T08:30:54.550Z,78.17
2016-10-30T08:31:54.609Z,78.59
2016-10-30T08:32:54.686Z,78.97
2016-10-30T08:33:54.723Z,78.97
2016-10-30T08:34:54.747Z,78.84
2016-10-30T08:35:55.358Z,79.32
2016-10-30T08:36:54.848Z,79.22
2016-10-30T08:37:54.881Z,78.93
2016-10-30T08:38:54.935Z,79.07
2016-10-30T08:39:54.996Z,78.93
2016-10-30T08:40:55.043Z,79.16
2016-10-30T08:41:55.092Z,79.16
2016-10-30T08:42:55.141Z,78.97
2016-10-30T08:43:55.229Z,78.97
2016-10-30T08:44:55.256Z,78.88
2016-10-30T08:45:55.298Z,79.07
2016-10-30T08:46:55.345Z,78.88
2016-10-30T08:47:55.405Z,79.16
2016-10-30T08:48:55.464Z,79.07
2016-10-30T08:49:55.509Z,79.16
2016-10-30T08:50:55.592Z,79.26
2016-10-30T08:51:55.596Z,79.16
2016-10-30T08:52:55.652Z,78.78
2016-10-30T08:53:55.701Z,79.16
2016-10-30T08:54:55.840Z,79.16
2016-10-30T08:55:55.770Z,79.45
2016-10-30T08:56:55.829Z,79.74
2016-10-30T08:57:55.882Z,79.16
2016-10-30T08:58:55.933Z,78.88
2016-10-30T08:59:56.068Z,78.97
2016-10-30T09:00:56.075Z,78.53
2016-10-30T09:01:56.084Z,78.05
2016-10-30T09:02:56.131Z,77.29
2016-10-30T09:03:56.184Z,77.29
2016-10-30T09:04:56.334Z,77.09
2016-10-30T09:05:56.297Z,76.42
2016-10-30T09:06:56.332Z,76.23
2016-10-30T09:07:56.398Z,75.85
2016-10-30T09:08:56.425Z,75.08
2016-10-30T09:09:57.034Z,75.18
2016-10-30T09:10:56.560Z,74.26
2016-10-30T09:11:56.598Z,74.26
2016-10-30T09:12:56.623Z,73.68
2016-10-30T09:13:56.700Z,73.49
2016-10-30T09:14:56.730Z,73
2016-10-30T09:15:57.438Z,71.89
2016-10-30T09:16:56.824Z,72.18
2016-10-30T09:17:56.888Z,71.7
2016-10-30T09:18:56.918Z,71.8
2016-10-30T09:19:56.973Z,71.03
2016-10-30T09:20:57.017Z,70.49
2016-10-30T09:21:57.097Z,70.29
2016-10-30T09:22:57.143Z,69.91
2016-10-30T09:23:57.205Z,69.53
2016-10-30T09:24:57.242Z,68.76
2016-10-30T09:25:57.433Z,68.02
2016-10-30T09:26:57.344Z,67.35
2016-10-30T09:27:57.402Z,67.45
2016-10-30T09:28:57.456Z,66.52
2016-10-30T09:29:57.526Z,66.52
2016-10-30T09:30:57.682Z,66.33
2016-10-30T09:31:57.604Z,66.42
2016-10-30T09:32:57.681Z,66.81
2016-10-30T09:33:57.734Z,66.81
2016-10-30T09:34:57.791Z,66.91
2016-10-30T09:35:57.863Z,67.48
2016-10-30T09:36:57.897Z,66.77
2016-10-30T09:37:57.952Z,66.87
2016-10-30T09:38:58.011Z,67.07
2016-10-30T09:39:58.052Z,68.12
2016-10-30T09:40:58.101Z,69.43
2016-10-30T09:41:58.163Z,70.01
2016-10-30T09:42:58.213Z,69.91
2016-10-30T09:43:58.785Z,70.36
2016-10-30T09:44:58.330Z,70.29
2016-10-30T09:45:58.384Z,69.68
2016-10-30T09:46:58.419Z,70.07
2016-10-30T09:47:58.453Z,70.55
2016-10-30T09:48:58.527Z,70.84
2016-10-30T09:49:58.574Z,71.03
2016-10-30T09:50:58.613Z,71.31
2016-10-30T09:51:58.659Z,71.89
2016-10-30T09:52:58.719Z,71.12
2016-10-30T09:53:58.790Z,71.03
2016-10-30T09:54:58.811Z,71.12
2016-10-30T09:55:58.879Z,71.89
2016-10-30T09:56:59.017Z,72.28
2016-10-30T09:57:59.498Z,72.28
2016-10-30T09:58:59.035Z,71.89
2016-10-30T09:59:59.070Z,72.53
2016-10-30T10:00:59.144Z,72.43
2016-10-30T10:01:59.264Z,72.72
2016-10-30T10:02:59.256Z,72.05
2016-10-30T10:03:59.258Z,72.33
2016-10-30T10:04:59.312Z,71.95
2016-10-30T10:05:59.373Z,72.14
2016-10-30T10:06:59.440Z,72.33
2016-10-30T10:07:59.451Z,73
2016-10-30T10:09:00.067Z,72.91
2016-10-30T10:09:59.569Z,73.3
2016-10-30T10:10:59.609Z,73.26
2016-10-30T10:11:59.677Z,73.55
2016-10-30T10:12:59.706Z,73.49
2016-10-30T10:13:59.786Z,73.16
2016-10-30T10:15:00.562Z,73.2
2016-10-30T10:15:59.864Z,72.81
2016-10-30T10:16:59.905Z,72.72
2016-10-30T10:17:59.976Z,72.81
2016-10-30T10:19:00.025Z,73.1
2016-10-30T10:20:00.072Z,72.91
2016-10-30T10:21:00.167Z,72.81
2016-10-30T10:22:00.175Z,72.72
2016-10-30T10:23:00.251Z,72.14
2016-10-30T10:24:00.262Z,72.24
2016-10-30T10:25:00.318Z,71.37
2016-10-30T10:26:00.368Z,70.84
2016-10-30T10:27:00.431Z,70.9
2016-10-30T10:28:00.585Z,71.12
2016-10-30T10:29:00.523Z,70.55
2016-10-30T10:30:00.584Z,71.03
2016-10-30T10:31:00.640Z,70.55
2016-10-30T10:32:00.670Z,71.03
2016-10-30T10:33:00.833Z,70.84
2016-10-30T10:34:00.770Z,69.4
2016-10-30T10:35:00.815Z,70.45
2016-10-30T10:36:00.894Z,70.17
2016-10-30T10:37:00.925Z,70.17
2016-10-30T10:38:01.062Z,69.97
2016-10-30T10:39:01.001Z,70.13
2016-10-30T10:40:01.096Z,70.84
2016-10-30T10:41:01.145Z,71.8
2016-10-30T10:42:01.164Z,70.99
2016-10-30T10:43:01.244Z,70.64
2016-10-30T10:44:01.262Z,70.8
2016-10-30T10:45:01.350Z,70.51
2016-10-30T10:46:01.384Z,71.03
2016-10-30T10:47:01.455Z,71.47
2016-10-30T10:48:01.477Z,71.12
2016-10-30T10:49:01.542Z,71.47
2016-10-30T10:50:01.560Z,71.12
2016-10-30T10:51:01.617Z,70.74
2016-10-30T10:52:01.666Z,70.84
2016-10-30T10:53:01.702Z,71.03
2016-10-30T10:54:01.757Z,71.03
2016-10-30T10:55:01.807Z,71.19
2016-10-30T10:56:01.869Z,71.66
2016-10-30T10:57:01.914Z,71.28
2016-10-30T10:58:01.982Z,71.28
2016-10-30T10:59:02.059Z,71.47
2016-10-30T11:00:02.062Z,71.76
2016-10-30T11:01:02.140Z,71.86
2016-10-30T11:02:02.733Z,71.37
2016-10-30T11:03:02.232Z,71.76
2016-10-30T11:04:02.370Z,71.61
2016-10-30T11:05:02.349Z,71.12
2016-10-30T11:06:02.373Z,70.74
2016-10-30T11:07:02.433Z,70.84
2016-10-30T11:08:02.485Z,70.99
2016-10-30T11:09:02.600Z,71.47
2016-10-30T11:10:02.593Z,71.03
2016-10-30T11:11:02.623Z,71.57
2016-10-30T11:12:02.687Z,72.56
2016-10-30T11:13:02.727Z,72.53
2016-10-30T11:14:02.859Z,71.8
2016-10-30T11:15:02.805Z,71.41
2016-10-30T11:16:02.883Z,70.84
2016-10-30T11:17:02.932Z,69.78
2016-10-30T11:18:02.974Z,70.17
2016-10-30T11:19:03.025Z,70.84
2016-10-30T11:20:03.057Z,71.12
2016-10-30T11:21:03.094Z,70.93
2016-10-30T11:22:03.151Z,71.03
2016-10-30T11:23:03.224Z,71.03
2016-10-30T11:24:03.259Z,71.41
2016-10-30T11:25:03.352Z,70.74
2016-10-30T11:26:03.389Z,70.84
2016-10-30T11:27:03.420Z,71.41
2016-10-30T11:28:03.478Z,70.45
2016-10-30T11:29:04.070Z,70.07
2016-10-30T11:30:04.072Z,69.87
2016-10-30T11:31:03.621Z,70.07
2016-10-30T11:32:03.666Z,70.17
2016-10-30T11:33:03.782Z,70.07
2016-10-30T11:34:03.782Z,70.45
2016-10-30T11:35:03.832Z,71.03
2016-10-30T11:36:03.897Z,70.74
2016-10-30T11:37:03.907Z,70.29
2016-10-30T11:38:03.979Z,69.87
2016-10-30T11:39:04.065Z,71.06
2016-10-30T11:40:04.160Z,70.97
2016-10-30T11:41:04.126Z,71.06
2016-10-30T11:42:04.155Z,70.1
2016-10-30T11:43:04.237Z,69.34
2016-10-30T11:44:04.271Z,69.91
2016-10-30T11:45:04.426Z,69.91
2016-10-30T11:46:04.360Z,69.43
2016-10-30T11:47:04.940Z,68.95
2016-10-30T11:48:04.502Z,68.76
2016-10-30T11:49:04.536Z,67.51
2016-10-30T11:50:04.682Z,67.64
2016-10-30T11:51:04.656Z,68.57
2016-10-30T11:52:04.670Z,67.8
2016-10-30T11:53:04.730Z,67.9
2016-10-30T11:54:04.775Z,68.57
2016-10-30T11:55:05.482Z,67.99
2016-10-30T11:56:04.866Z,67.7
2016-10-30T11:57:04.952Z,67.93
2016-10-30T11:58:04.994Z,67.25
2016-10-30T11:59:05.030Z,67.83
2016-10-30T12:00:05.080Z,68.98
2016-10-30T12:01:05.120Z,67.25
2016-10-30T12:02:05.700Z,65.75
2016-10-30T12:03:05.254Z,66.23
2016-10-30T12:04:05.260Z,66.14
2016-10-30T12:05:05.327Z,66.04
2016-10-30T12:06:05.375Z,65.75
2016-10-30T12:07:05.406Z,65.17
2016-10-30T12:08:06.015Z,64.6
2016-10-30T12:09:05.546Z,64.6
2016-10-30T12:10:05.599Z,65.27
2016-10-30T12:11:05.632Z,65.08
2016-10-30T12:12:06.197Z,63.92
2016-10-30T12:13:05.736Z,64.98
2016-10-30T12:14:05.784Z,64.56
2016-10-30T12:15:05.841Z,64.5
2016-10-30T12:16:05.874Z,64.89
2016-10-30T12:17:05.952Z,64.98
2016-10-30T12:18:05.988Z,65.56
2016-10-30T12:19:06.072Z,64.63
2016-10-30T12:20:06.084Z,65.4
2016-10-30T12:21:06.261Z,64.05
2016-10-30T12:22:06.182Z,62.9
2016-10-30T12:23:06.258Z,62.51
2016-10-30T12:24:06.287Z,63.48
2016-10-30T12:25:06.335Z,63.57
2016-10-30T12:26:07.046Z,63.86
2016-10-30T12:27:06.438Z,62.45
2016-10-30T12:28:06.491Z,62.35
2016-10-30T12:29:06.544Z,62.16
2016-10-30T12:30:06.626Z,61.58
2016-10-30T12:31:06.760Z,62.74
2016-10-30T12:32:06.716Z,62.35
2016-10-30T12:33:06.761Z,61.97
2016-10-30T12:34:06.804Z,61.19
2016-10-30T12:35:06.859Z,61
2016-10-30T12:36:06.919Z,61.13
2016-10-30T12:37:06.956Z,61.19
2016-10-30T12:38:07.000Z,61.97
2016-10-30T12:39:07.078Z,62.09
2016-10-30T12:40:07.099Z,60.07
2016-10-30T12:41:07.163Z,60.27
2016-10-30T12:42:07.234Z,60.75
2016-10-30T12:43:07.266Z,61.13
2016-10-30T12:44:07.350Z,60.84
2016-10-30T12:45:07.379Z,61.97
2016-10-30T12:46:07.429Z,61.13
2016-10-30T12:47:07.489Z,61.04
2016-10-30T12:48:07.536Z,61.13
2016-10-30T12:49:07.596Z,60.65
2016-10-30T12:50:07.618Z,60.77
2016-10-30T12:51:07.710Z,60.36
2016-10-30T12:52:07.847Z,60.65
2016-10-30T12:53:07.808Z,60.65
2016-10-30T12:54:07.859Z,61.13
2016-10-30T12:55:07.885Z,61.13